Time;durP1;ratioP1;P1;durP2;ratioP2;P2;SDS_P1;SDS_P2;PMS_P1;PMS_P2;Temp;Humidity;BMP_temperature;BMP_pressure;BME280_temperature;BME280_humidity;BME280_pressure;Samples;Min_cycle;Max_cycle;Signal;HPM_P1;HPM_P2
2021/08/10 00:02:15;;;;;;;1999.90;999.90;;;18.10;99.90;;;;;;5052510;28;20488;-81
2021/08/10 00:04:43;;;;;;;1999.90;999.90;;;18.10;99.90;;;;;;5052497;28;20513;-81
2021/08/10 00:07:11;;;;;;;1999.90;999.90;;;18.00;99.90;;;;;;5066404;28;20429;-82
2021/08/10 00:09:37;;;;;;;1999.90;999.90;;;18.00;99.90;;;;;;5064440;28;20427;-82
2021/08/10 00:12:03;;;;;;;1999.90;999.90;;;17.90;99.90;;;;;;5047114;28;20434;-82
2021/08/10 00:14:29;;;;;;;1999.90;999.90;;;17.80;99.90;;;;;;5046812;28;20172;-81
2021/08/10 00:16:54;;;;;;;1999.90;999.90;;;17.80;99.90;;;;;;5047654;28;20442;-81
2021/08/10 00:19:20;;;;;;;1999.90;999.90;;;17.80;99.90;;;;;;5065220;28;20183;-81
2021/08/10 00:21:46;;;;;;;1999.90;999.90;;;17.80;99.90;;;;;;5065760;28;20200;-82
2021/08/10 00:24:11;;;;;;;1999.90;999.90;;;17.80;99.90;;;;;;5066269;28;20191;-82
2021/08/10 00:26:37;;;;;;;1999.90;999.90;;;17.80;99.90;;;;;;5047757;28;20210;-81
2021/08/10 00:29:03;;;;;;;1999.90;999.90;;;17.80;99.90;;;;;;5048050;28;20169;-82
2021/08/10 00:31:30;;;;;;;1999.90;999.90;;;17.80;99.90;;;;;;5065717;28;20165;-81
2021/08/10 00:33:56;;;;;;;1999.90;999.90;;;17.80;99.90;;;;;;5065955;28;20410;-82
2021/08/10 00:36:22;;;;;;;1999.90;999.90;;;17.70;99.90;;;;;;5065482;28;20415;-82
2021/08/10 00:38:48;;;;;;;1999.90;999.90;;;17.70;99.90;;;;;;5066609;28;20445;-81
2021/08/10 00:41:14;;;;;;;1999.90;999.90;;;17.60;99.90;;;;;;5065995;28;20439;-81
2021/08/10 00:43:42;;;;;;;1999.90;999.90;;;17.60;99.90;;;;;;5066416;28;20160;-81
2021/08/10 00:46:13;;;;;;;1999.90;999.90;;;17.60;99.90;;;;;;5066088;28;20402;-81
2021/08/10 00:48:38;;;;;;;1999.90;999.90;;;17.50;99.90;;;;;;5067444;28;20386;-81
2021/08/10 00:51:07;;;;;;;1999.90;999.90;;;17.40;99.90;;;;;;5066229;28;20407;-82
2021/08/10 00:53:33;;;;;;;1999.90;999.90;;;17.40;99.90;;;;;;5066023;28;20161;-82
2021/08/10 00:55:59;;;;;;;1999.90;999.90;;;17.40;99.90;;;;;;5065968;28;20399;-81
2021/08/10 00:58:25;;;;;;;1999.90;999.90;;;17.40;99.90;;;;;;5065565;28;20399;-81
2021/08/10 01:00:50;;;;;;;1999.90;999.90;;;17.50;99.90;;;;;;5066630;28;20321;-81
2021/08/10 01:03:17;;;;;;;1999.90;999.90;;;17.50;99.90;;;;;;5065259;28;20403;-81
2021/08/10 01:05:46;;;;;;;1999.90;999.90;;;17.50;99.90;;;;;;5065279;28;20157;-81
2021/08/10 01:08:15;;;;;;;1999.90;999.90;;;17.40;99.90;;;;;;5047179;28;20430;-81
2021/08/10 01:10:47;;;;;;;1999.90;999.90;;;17.40;99.90;;;;;;5068131;28;20403;-81
2021/08/10 01:13:31;;;;;;;1999.90;999.90;;;17.40;99.90;;;;;;5051225;28;20418;-81
2021/08/10 01:16:15;;;;;;;1999.90;999.90;;;17.40;99.90;;;;;;5050268;28;20486;-81
2021/08/10 01:19:11;;;;;;;1999.90;999.90;;;17.40;99.90;;;;;;5068336;28;20388;-81
2021/08/10 01:21:44;;;;;;;1999.90;999.90;;;17.40;99.90;;;;;;5050921;28;20538;-81
2021/08/10 01:24:28;;;;;;;1999.90;999.90;;;17.30;99.90;;;;;;5069008;28;20887;-81
2021/08/10 01:27:27;;;;;;;1999.90;999.90;;;17.30;99.90;;;;;;5068563;28;20411;-81
2021/08/10 01:30:00;;;;;;;1999.90;999.90;;;17.30;99.90;;;;;;5050561;28;20409;-81
2021/08/10 01:32:27;;;;;;;1999.90;999.90;;;17.30;99.90;;;;;;5068135;28;20388;-81
2021/08/10 01:34:54;;;;;;;1999.90;999.90;;;17.20;99.90;;;;;;5068170;28;20427;-81
2021/08/10 01:37:23;;;;;;;1999.90;999.90;;;17.20;99.90;;;;;;5069285;28;20450;-81
2021/08/10 01:39:53;;;;;;;1999.90;999.90;;;17.20;99.90;;;;;;5067333;28;20418;-81
2021/08/10 01:42:19;;;;;;;1999.90;999.90;;;17.20;99.90;;;;;;5068227;28;20414;-81
2021/08/10 01:44:47;;;;;;;1999.90;999.90;;;17.20;99.90;;;;;;5067908;28;20395;-81
2021/08/10 01:47:16;;;;;;;1999.90;999.90;;;17.20;99.90;;;;;;5068202;28;20433;-81
2021/08/10 01:49:42;;;;;;;1999.90;999.90;;;17.20;99.90;;;;;;5068916;28;20407;-81
2021/08/10 01:52:18;;;;;;;1999.90;999.90;;;17.20;99.90;;;;;;5068957;28;20411;-81
2021/08/10 01:54:46;;;;;;;1999.90;999.90;;;17.10;99.90;;;;;;5068327;28;20403;-81
2021/08/10 01:57:13;;;;;;;1999.90;999.90;;;17.20;99.90;;;;;;5068386;28;20419;-82
2021/08/10 01:59:39;;;;;;;1999.90;999.90;;;17.20;99.90;;;;;;5068561;28;20890;-81
2021/08/10 02:02:07;;;;;;;1999.90;999.90;;;17.20;99.90;;;;;;5068388;28;20482;-81
2021/08/10 02:04:34;;;;;;;1999.90;999.90;;;17.10;99.90;;;;;;5050412;28;20403;-81
2021/08/10 02:07:02;;;;;;;1999.90;999.90;;;17.10;99.90;;;;;;5067517;28;20434;-81
2021/08/10 02:09:28;;;;;;;1999.90;999.90;;;17.10;99.90;;;;;;5067810;28;20408;-81
2021/08/10 02:11:54;;;;;;;1999.90;999.90;;;17.10;99.90;;;;;;5068251;28;20422;-81
2021/08/10 02:14:24;;;;;;;1999.90;999.90;;;17.00;99.90;;;;;;5049777;28;20415;-81
2021/08/10 02:17:02;;;;;;;1999.90;999.90;;;17.00;99.90;;;;;;5067663;28;20427;-81
2021/08/10 02:19:29;;;;;;;1999.90;999.90;;;17.00;99.90;;;;;;5068077;28;20474;-81
2021/08/10 02:22:10;;;;;;;1999.90;999.90;;;17.00;99.90;;;;;;5068247;28;20473;-81
2021/08/10 02:24:46;;;;;;;1999.90;999.90;;;17.00;99.90;;;;;;5050236;28;20415;-82
2021/08/10 02:27:20;;;;;;;1999.90;999.90;;;17.00;99.90;;;;;;5068457;28;20478;-81
2021/08/10 02:29:49;;;;;;;1999.90;999.90;;;17.00;99.90;;;;;;5068011;28;20390;-81
2021/08/10 02:32:21;;;;;;;1999.90;999.90;;;17.00;99.90;;;;;;5069294;28;20410;-81
2021/08/10 02:34:47;;;;;;;1999.90;999.90;;;17.00;99.90;;;;;;5068913;28;20403;-82
2021/08/10 02:37:17;;;;;;;1999.90;999.90;;;16.90;99.90;;;;;;5068240;28;20415;-81
2021/08/10 02:39:46;;;;;;;1999.90;999.90;;;16.80;99.90;;;;;;5071100;28;20411;-82
2021/08/10 02:42:14;;;;;;;1999.90;999.90;;;16.80;99.90;;;;;;5053473;28;20411;-81
2021/08/10 02:44:41;;;;;;;1999.90;999.90;;;16.90;99.90;;;;;;5072774;28;20406;-82
2021/08/10 02:47:07;;;;;;;1999.90;999.90;;;16.90;99.90;;;;;;5071887;28;20510;-82
2021/08/10 02:49:36;;;;;;;1999.90;999.90;;;17.00;99.90;;;;;;5069073;28;20403;-81
2021/08/10 02:52:01;;;;;;;1999.90;999.90;;;17.00;99.90;;;;;;5069727;28;20194;-81
2021/08/10 02:54:27;;;;;;;1999.90;999.90;;;17.00;99.90;;;;;;5054708;28;20451;-82
2021/08/10 02:57:26;;;;;;;1999.90;999.90;;;17.10;99.90;;;;;;5071259;28;20556;-81
2021/08/10 03:00:11;;;;;;;1999.90;999.90;;;17.10;99.90;;;;;;5067677;28;20185;-81
2021/08/10 03:02:42;;;;;;;1999.90;999.90;;;17.10;99.90;;;;;;5069475;28;20410;-82
2021/08/10 03:05:20;;;;;;;1999.90;999.90;;;17.10;99.90;;;;;;5068988;28;20390;-81
2021/08/10 03:08:00;;;;;;;1999.90;999.90;;;17.10;99.90;;;;;;5052097;28;20447;-81
2021/08/10 03:10:31;;;;;;;1999.90;999.90;;;17.10;99.90;;;;;;5069924;28;20411;-81
2021/08/10 03:13:02;;;;;;;1999.90;999.90;;;17.20;99.90;;;;;;5050470;28;20403;-82
2021/08/10 03:15:30;;;;;;;1999.90;999.90;;;17.10;99.90;;;;;;5048471;28;20430;-82
2021/08/10 03:18:04;;;;;;;1999.90;999.90;;;17.10;99.90;;;;;;5066028;28;20431;-82
2021/08/10 03:20:32;;;;;;;1999.90;999.90;;;17.10;99.90;;;;;;5065934;28;20431;-81
2021/08/10 03:22:59;;;;;;;1999.90;999.90;;;17.10;99.90;;;;;;5065390;28;20403;-82
2021/08/10 03:25:27;;;;;;;1999.90;999.90;;;17.10;99.90;;;;;;5047608;28;20774;-82
2021/08/10 03:27:54;;;;;;;1999.90;999.90;;;17.20;99.90;;;;;;5063216;28;20445;-81
2021/08/10 03:30:24;;;;;;;1999.90;999.90;;;17.20;99.90;;;;;;5044901;28;20407;-82
2021/08/10 03:32:52;;;;;;;1999.90;999.90;;;17.10;99.90;;;;;;5062366;28;20481;-81
2021/08/10 03:35:19;;;;;;;1999.90;999.90;;;17.10;99.90;;;;;;5058282;28;20414;-81
2021/08/10 03:37:45;;;;;;;1999.90;999.90;;;17.10;99.90;;;;;;5129605;22;20461;-79
2021/08/10 03:40:12;;;;;;;1999.90;999.90;;;17.00;99.90;;;;;;5057515;28;20996;-82
2021/08/10 03:42:39;;;;;;;1999.90;999.90;;;17.00;99.90;;;;;;5058113;28;20975;-81
2021/08/10 03:45:06;;;;;;;1999.90;999.90;;;17.00;99.90;;;;;;5057874;28;20418;-81
2021/08/10 03:47:32;;;;;;;1999.90;999.90;;;17.00;99.90;;;;;;5040387;28;20443;-81
2021/08/10 03:49:59;;;;;;;1999.90;999.90;;;17.00;99.90;;;;;;5038434;28;20942;-82
2021/08/10 03:52:25;;;;;;;1999.90;999.90;;;17.00;99.90;;;;;;5130175;22;20494;-81
2021/08/10 03:54:51;;;;;;;1999.90;999.90;;;17.00;99.90;;;;;;5115100;22;20853;-81
2021/08/10 03:57:19;;;;;;;1999.90;999.90;;;16.90;99.90;;;;;;5057892;28;20419;-81
2021/08/10 03:59:49;;;;;;;1999.90;999.90;;;16.90;99.90;;;;;;5057394;28;20396;-81
2021/08/10 04:02:27;;;;;;;1999.90;999.90;;;16.80;99.90;;;;;;5039935;28;20415;-81
2021/08/10 04:04:55;;;;;;;1999.90;999.90;;;16.90;99.90;;;;;;5057884;28;20390;-81
2021/08/10 04:07:21;;;;;;;1999.90;999.90;;;16.90;99.90;;;;;;5057680;28;20867;-81
2021/08/10 04:09:48;;;;;;;1999.90;999.90;;;16.90;99.90;;;;;;5058085;28;20411;-81
2021/08/10 04:12:14;;;;;;;1999.90;999.90;;;16.90;99.90;;;;;;5039801;28;20443;-81
2021/08/10 04:14:41;;;;;;;1999.90;999.90;;;16.90;99.90;;;;;;5057700;28;20403;-81
2021/08/10 04:17:07;;;;;;;1999.90;999.90;;;16.90;99.90;;;;;;5058188;28;20526;-81
2021/08/10 04:19:36;;;;;;;1999.90;999.90;;;16.80;99.90;;;;;;5057620;28;20403;-81
2021/08/10 04:22:03;;;;;;;1999.90;999.90;;;16.80;99.90;;;;;;5056963;28;20437;-81
2021/08/10 04:24:29;;;;;;;1999.90;999.90;;;16.80;99.90;;;;;;5056719;28;20410;-81
2021/08/10 04:26:55;;;;;;;1999.90;999.90;;;16.80;99.90;;;;;;5039425;28;20437;-81
2021/08/10 04:29:22;;;;;;;1999.90;999.90;;;16.80;99.90;;;;;;5039535;28;20786;-81
2021/08/10 04:31:48;;;;;;;1999.90;999.90;;;16.70;99.90;;;;;;5039235;28;20177;-81
2021/08/10 04:34:14;;;;;;;1999.90;999.90;;;16.80;99.90;;;;;;5057472;28;20414;-81
2021/08/10 04:36:39;;;;;;;1999.90;999.90;;;16.70;99.90;;;;;;5058045;28;20477;-81
2021/08/10 04:39:05;;;;;;;1999.90;999.90;;;16.80;99.90;;;;;;5057297;28;20408;-81
2021/08/10 04:41:34;;;;;;;1999.90;999.90;;;16.70;99.90;;;;;;5057543;28;20191;-81
2021/08/10 04:43:59;;;;;;;1999.90;999.90;;;16.70;99.90;;;;;;5039481;28;20494;-81
2021/08/10 04:46:30;;;;;;;1999.90;999.90;;;16.70;99.90;;;;;;5057629;28;21019;-81
2021/08/10 04:48:56;;;;;;;1999.90;999.90;;;16.80;99.90;;;;;;5057648;28;20153;-81
2021/08/10 04:51:21;;;;;;;1999.90;999.90;;;16.80;99.90;;;;;;5057557;28;20395;-81
2021/08/10 04:53:47;;;;;;;1999.90;999.90;;;16.80;99.90;;;;;;5057257;28;20410;-81
2021/08/10 04:56:13;;;;;;;1999.90;999.90;;;16.80;99.90;;;;;;5056851;28;20200;-81
2021/08/10 04:58:39;;;;;;;1999.90;999.90;;;16.90;99.90;;;;;;5057187;28;20172;-81
2021/08/10 05:01:17;;;;;;;1999.90;999.90;;;16.80;99.90;;;;;;5038844;28;20810;-82
2021/08/10 05:03:44;;;;;;;1999.90;999.90;;;16.80;99.90;;;;;;5057374;28;20456;-82
2021/08/10 05:06:10;;;;;;;1999.90;999.90;;;16.80;99.90;;;;;;5056607;28;20840;-82
2021/08/10 05:08:35;;;;;;;1999.90;999.90;;;16.90;99.90;;;;;;5056984;28;20427;-82
2021/08/10 05:11:01;;;;;;;1999.90;999.90;;;16.90;99.90;;;;;;5057089;28;20507;-82
2021/08/10 05:13:28;;;;;;;1999.90;999.90;;;17.00;99.90;;;;;;5057163;28;20161;-82
2021/08/10 05:15:54;;;;;;;1999.90;999.90;;;17.00;99.90;;;;;;5056771;28;20407;-81
2021/08/10 05:18:20;;;;;;;1999.90;999.90;;;17.10;99.90;;;;;;5038960;28;20926;-82
2021/08/10 05:20:46;;;;;;;1999.90;999.90;;;17.00;99.90;;;;;;5039802;28;20196;-82
2021/08/10 05:23:11;;;;;;;1999.90;999.90;;;17.00;99.90;;;;;;5057231;28;20433;-82
2021/08/10 05:25:37;;;;;;;1999.90;999.90;;;17.00;99.90;;;;;;5057415;28;20172;-82
2021/08/10 05:28:03;;;;;;;1999.90;999.90;;;17.00;99.90;;;;;;5056749;28;20425;-82
2021/08/10 05:30:29;;;;;;;1999.90;999.90;;;17.00;99.90;;;;;;5057202;28;20169;-82
2021/08/10 05:32:58;;;;;;;1999.90;999.90;;;17.00;99.90;;;;;;5038871;28;20494;-82
2021/08/10 05:35:23;;;;;;;1999.90;999.90;;;17.00;99.90;;;;;;5039254;28;20407;-82
2021/08/10 05:37:49;;;;;;;1999.90;999.90;;;17.10;99.90;;;;;;5056395;28;20451;-82
2021/08/10 05:40:15;;;;;;;1999.90;999.90;;;17.10;99.90;;;;;;5038653;28;20204;-82
2021/08/10 05:42:40;;;;;;;1999.90;999.90;;;17.10;99.90;;;;;;5056766;28;20687;-82
2021/08/10 05:45:06;;;;;;;1999.90;999.90;;;17.10;99.90;;;;;;5038753;28;20705;-82
2021/08/10 05:47:32;;;;;;;1999.90;999.90;;;17.10;99.90;;;;;;5056584;28;20184;-82
2021/08/10 05:49:57;;;;;;;1999.90;999.90;;;17.20;99.90;;;;;;5056754;28;20453;-82
2021/08/10 05:52:23;;;;;;;1999.90;999.90;;;17.20;99.90;;;;;;5039158;28;20173;-82
2021/08/10 05:54:49;;;;;;;1999.90;999.90;;;17.20;99.90;;;;;;5039566;28;20247;-82
2021/08/10 05:57:14;;;;;;;1999.90;999.90;;;17.20;99.90;;;;;;5056120;28;20185;-81
2021/08/10 05:59:40;;;;;;;1999.90;999.90;;;17.30;99.90;;;;;;5036105;28;20168;-80
2021/08/10 06:02:09;;;;;;;1999.90;999.90;;;17.30;99.90;;;;;;5053125;28;20181;-81
2021/08/10 06:04:34;;;;;;;1999.90;999.90;;;17.30;99.90;;;;;;5053645;28;20145;-81
2021/08/10 06:07:03;;;;;;;1999.90;999.90;;;17.40;99.90;;;;;;5053361;28;20968;-80
2021/08/10 06:09:28;;;;;;;1999.90;999.90;;;17.40;99.90;;;;;;5053363;28;20211;-80
2021/08/10 06:11:54;;;;;;;1999.90;999.90;;;17.50;99.90;;;;;;5053606;28;20399;-80
2021/08/10 06:14:20;;;;;;;1999.90;999.90;;;17.40;99.90;;;;;;5037996;28;20175;-80
2021/08/10 06:16:45;;;;;;;1999.90;999.90;;;17.40;99.90;;;;;;5057022;28;20181;-80
2021/08/10 06:19:11;;;;;;;1999.90;999.90;;;17.40;99.90;;;;;;5039265;28;20184;-80
2021/08/10 06:21:37;;;;;;;1999.90;999.90;;;17.40;99.90;;;;;;5058518;28;20189;-82
2021/08/10 06:24:02;;;;;;;1999.90;999.90;;;17.50;99.90;;;;;;5042034;28;20199;-82
2021/08/10 06:26:28;;;;;;;1999.90;999.90;;;17.50;99.90;;;;;;5043031;28;20189;-82
2021/08/10 06:28:54;;;;;;;1999.90;999.90;;;17.60;99.90;;;;;;5060034;28;20161;-81
2021/08/10 06:31:20;;;;;;;1999.90;999.90;;;17.60;99.90;;;;;;5060275;28;20175;-82
2021/08/10 06:33:45;;;;;;;1999.90;999.90;;;17.60;99.90;;;;;;5059935;28;20403;-82
2021/08/10 06:36:11;;;;;;;1999.90;999.90;;;17.50;99.90;;;;;;5059800;28;20423;-82
2021/08/10 06:38:37;;;;;;;1999.90;999.90;;;17.50;99.90;;;;;;5041334;28;20173;-82
2021/08/10 06:41:02;;;;;;;1999.90;999.90;;;17.60;99.90;;;;;;5059528;28;20200;-81
2021/08/10 06:43:28;;;;;;;1999.90;999.90;;;17.60;99.90;;;;;;5059467;28;20165;-82
2021/08/10 06:45:54;;;;;;;1999.90;999.90;;;17.60;99.90;;;;;;5058897;28;20636;-82
2021/08/10 06:48:22;;;;;;;1999.90;999.90;;;17.60;99.90;;;;;;5059317;28;20243;-82
2021/08/10 06:50:49;;;;;;;1999.90;999.90;;;17.70;99.90;;;;;;5058302;28;20172;-82
2021/08/10 06:53:17;;;;;;;1999.90;999.90;;;17.80;99.90;;;;;;5042121;28;20407;-82
2021/08/10 06:55:43;;;;;;;1999.90;999.90;;;17.90;99.90;;;;;;5042317;28;20968;-82
2021/08/10 06:58:08;;;;;;;1999.90;999.90;;;17.90;99.90;;;;;;5043542;28;20465;-82
2021/08/10 07:00:34;;;;;;;1999.90;999.90;;;17.90;99.90;;;;;;5058877;28;20462;-82
2021/08/10 07:03:00;;;;;;;1999.90;999.90;;;18.00;99.90;;;;;;5058939;28;20172;-82
2021/08/10 07:05:26;;;;;;;1999.90;999.90;;;18.00;99.90;;;;;;5041685;28;20188;-82
2021/08/10 07:07:52;;;;;;;1999.90;999.90;;;18.00;99.90;;;;;;5041143;28;20185;-80
2021/08/10 07:10:18;;;;;;;1999.90;999.90;;;18.00;99.90;;;;;;5039330;28;20411;-80
2021/08/10 07:12:44;;;;;;;1999.90;999.90;;;18.00;99.90;;;;;;5058194;28;20405;-82
2021/08/10 07:15:12;;;;;;;1999.90;999.90;;;18.10;99.90;;;;;;5040734;28;20457;-80
2021/08/10 07:17:38;;;;;;;1999.90;999.90;;;18.10;99.90;;;;;;5057664;28;20192;-79
2021/08/10 07:20:04;;;;;;;1999.90;999.90;;;18.10;99.90;;;;;;5040041;28;20419;-81
2021/08/10 07:22:30;;;;;;;1999.90;999.90;;;18.10;99.90;;;;;;5058791;28;20161;-82
2021/08/10 07:24:58;;;;;;;1999.90;999.90;;;18.20;99.90;;;;;;5058960;28;20403;-81
2021/08/10 07:27:30;;;;;;;1999.90;999.90;;;18.20;99.90;;;;;;5058893;28;20254;-82
2021/08/10 07:29:56;;;;;;;1999.90;999.90;;;18.30;99.90;;;;;;5059073;28;20457;-82
2021/08/10 07:32:22;;;;;;;1999.90;999.90;;;18.40;99.90;;;;;;5059229;28;20376;-82
2021/08/10 07:34:49;;;;;;;1999.90;999.90;;;18.50;99.90;;;;;;5040684;28;20182;-82
2021/08/10 07:37:15;;;;;;;1999.90;999.90;;;18.60;99.90;;;;;;5040467;28;20196;-82
2021/08/10 07:39:41;;;;;;;1999.90;999.90;;;18.70;99.90;;;;;;5058340;28;20380;-81
2021/08/10 07:42:07;;;;;;;1999.90;999.90;;;18.80;99.90;;;;;;5058083;28;20423;-82
2021/08/10 07:44:32;;;;;;;1999.90;999.90;;;18.90;99.90;;;;;;5058343;28;20165;-82
2021/08/10 07:46:58;;;;;;;1999.90;999.90;;;19.10;99.90;;;;;;5039810;28;20248;-81
2021/08/10 07:49:24;;;;;;;1999.90;999.90;;;19.30;99.90;;;;;;5057972;28;20251;-81
2021/08/10 07:51:50;;;;;;;1999.90;999.90;;;19.40;99.90;;;;;;5057643;28;20574;-81
2021/08/10 07:54:23;;;;;;;1999.90;999.90;;;19.60;99.90;;;;;;5057849;28;20160;-81
2021/08/10 07:56:48;;;;;;;1999.90;999.90;;;19.60;99.90;;;;;;5058301;28;20192;-81
2021/08/10 07:59:14;;;;;;;1999.90;999.90;;;19.60;99.90;;;;;;5040283;28;20404;-81
2021/08/10 08:01:40;;;;;;;1999.90;999.90;;;19.50;99.90;;;;;;5039882;28;20552;-81
2021/08/10 08:04:05;;;;;;;1999.90;999.90;;;19.60;99.90;;;;;;5058385;28;20211;-81
2021/08/10 08:06:31;;;;;;;1999.90;999.90;;;19.60;99.90;;;;;;5057809;28;20272;-81
2021/08/10 08:08:57;;;;;;;1999.90;999.90;;;19.60;99.90;;;;;;5057182;28;20166;-81
2021/08/10 08:11:23;;;;;;;1999.90;999.90;;;19.70;99.90;;;;;;5058057;28;20172;-82
2021/08/10 08:13:49;;;;;;;1999.90;999.90;;;19.80;99.90;;;;;;5057449;28;20166;-81
2021/08/10 08:16:15;;;;;;;1999.90;999.90;;;19.80;99.90;;;;;;5039626;28;20625;-81
2021/08/10 08:18:44;;;;;;;1999.90;999.90;;;19.80;99.90;;;;;;5038815;28;20411;-81
2021/08/10 08:21:09;;;;;;;1999.90;999.90;;;19.80;99.90;;;;;;5057332;28;20667;-81
2021/08/10 08:23:37;;;;;;;1999.90;999.90;;;19.70;99.90;;;;;;5057174;28;20405;-82
2021/08/10 08:26:05;;;;;;;1999.90;999.90;;;19.90;99.90;;;;;;5057497;28;20194;-82
2021/08/10 08:28:32;;;;;;;1999.90;999.90;;;20.00;99.90;;;;;;5057236;28;20403;-81
2021/08/10 08:30:58;;;;;;;1999.90;999.90;;;20.20;99.90;;;;;;5057350;28;20405;-81
2021/08/10 08:33:23;;;;;;;1999.90;999.90;;;20.30;99.90;;;;;;5057426;28;20951;-81
2021/08/10 08:35:49;;;;;;;1999.90;999.90;;;20.50;99.90;;;;;;5057166;28;20164;-82
2021/08/10 08:38:16;;;;;;;1999.90;999.90;;;20.40;99.90;;;;;;5057193;28;20242;-82
2021/08/10 08:40:47;;;;;;;1999.90;999.90;;;20.40;99.90;;;;;;5057423;28;20749;-81
2021/08/10 08:43:21;;;;;;;1999.90;999.90;;;20.60;99.90;;;;;;5057403;28;20385;-82
2021/08/10 08:45:47;;;;;;;1999.90;999.90;;;20.70;99.90;;;;;;5038989;28;20406;-81
2021/08/10 08:48:17;;;;;;;1999.90;999.90;;;20.60;99.90;;;;;;5057187;28;20428;-81
2021/08/10 08:50:49;;;;;;;1999.90;999.90;;;20.80;99.90;;;;;;5057000;28;20164;-81
2021/08/10 08:53:20;;;;;;;1999.90;999.90;;;20.80;99.90;;;;;;5040044;28;20401;-80
2021/08/10 08:55:47;;;;;;;1999.90;999.90;;;20.80;99.90;;;;;;5054494;28;20434;-80
2021/08/10 08:58:17;;;;;;;1999.90;999.90;;;20.90;99.90;;;;;;5053875;28;20491;-79
2021/08/10 09:00:43;;;;;;;1999.90;999.90;;;20.80;99.90;;;;;;5036033;28;20431;-79
2021/08/10 09:03:09;;;;;;;1999.90;999.90;;;20.60;99.90;;;;;;5055173;28;20423;-79
2021/08/10 09:05:39;;;;;;;1999.90;999.90;;;20.50;99.90;;;;;;5037685;28;20403;-80
2021/08/10 09:08:27;;;;;;;1999.90;999.90;;;20.50;99.90;;;;;;5053984;28;20432;-80
2021/08/10 09:10:55;;;;;;;1999.90;999.90;;;20.60;99.90;;;;;;5054432;28;20809;-80
2021/08/10 09:13:21;;;;;;;1999.90;999.90;;;20.60;99.90;;;;;;5054304;28;20403;-80
2021/08/10 09:15:47;;;;;;;1999.90;999.90;;;20.60;99.90;;;;;;5054087;28;20482;-80
2021/08/10 09:18:15;;;;;;;1999.90;999.90;;;20.50;99.90;;;;;;5036339;28;20242;-79
2021/08/10 09:20:58;;;;;;;1999.90;999.90;;;20.30;99.90;;;;;;5054220;28;20625;-79
2021/08/10 09:23:41;;;;;;;1999.90;999.90;;;20.30;99.90;;;;;;5054435;28;20384;-80
2021/08/10 09:26:09;;;;;;;1999.90;999.90;;;20.30;99.90;;;;;;5036225;28;20409;-81
2021/08/10 09:28:36;;;;;;;1999.90;999.90;;;20.30;99.90;;;;;;5035778;28;20924;-80
2021/08/10 09:31:33;;;;;;;1999.90;999.90;;;20.10;99.90;;;;;;5054203;28;20406;-80
2021/08/10 09:34:15;;;;;;;1999.90;999.90;;;20.00;99.90;;;;;;5054295;28;20433;-82
2021/08/10 09:36:41;;;;;;;1999.90;999.90;;;19.90;99.90;;;;;;5053871;28;20417;-81
2021/08/10 09:39:07;;;;;;;1999.90;999.90;;;19.90;99.90;;;;;;5036368;28;20408;-81
2021/08/10 09:41:33;;;;;;;1999.90;999.90;;;19.90;99.90;;;;;;5080055;22;20252;-83
2021/08/10 09:44:13;;;;;;;1999.90;999.90;;;19.80;99.90;;;;;;5068091;28;20397;-82
2021/08/10 09:46:46;;;;;;;1999.90;999.90;;;19.80;99.90;;;;;;5051221;28;20457;-82
2021/08/10 09:49:12;;;;;;;1999.90;999.90;;;19.90;99.90;;;;;;5071060;28;20375;-82
2021/08/10 09:51:42;;;;;;;1999.90;999.90;;;20.00;99.90;;;;;;5052509;28;20406;-82
2021/08/10 09:54:11;;;;;;;1999.90;999.90;;;20.10;99.90;;;;;;5072347;28;20384;-82
2021/08/10 09:56:57;;;;;;;1999.90;999.90;;;20.10;99.90;;;;;;5071649;28;20417;-82
2021/08/10 09:59:38;;;;;;;1999.90;999.90;;;20.20;99.90;;;;;;5066664;28;20402;-82
2021/08/10 10:02:24;;;;;;;1999.90;999.90;;;20.40;99.90;;;;;;5070762;28;20443;-82
2021/08/10 10:04:55;;;;;;;1999.90;999.90;;;20.50;99.90;;;;;;5072795;28;20383;-82
2021/08/10 10:07:22;;;;;;;1999.90;999.90;;;20.70;99.90;;;;;;5072656;28;20419;-82
2021/08/10 10:09:48;;;;;;;1999.90;999.90;;;20.80;99.90;;;;;;5072197;28;20400;-82
2021/08/10 10:12:15;;;;;;;1999.90;999.90;;;20.70;99.90;;;;;;5054561;28;20471;-82
2021/08/10 10:14:44;;;;;;;1999.90;999.90;;;20.70;99.90;;;;;;5054479;28;20817;-82
2021/08/10 10:17:09;;;;;;;1999.90;999.90;;;20.80;99.90;;;;;;5072588;28;20423;-81
2021/08/10 10:19:37;;;;;;;1999.90;999.90;;;20.90;99.90;;;;;;5073785;28;20419;-81
2021/08/10 10:22:06;;;;;;;1999.90;999.90;;;21.10;99.90;;;;;;5074161;28;20193;-81
2021/08/10 10:24:39;;;;;;;1999.90;999.90;;;21.20;99.90;;;;;;5073194;28;20417;-81
2021/08/10 10:27:07;;;;;;;1999.90;999.90;;;21.50;99.90;;;;;;5073078;28;20506;-81
2021/08/10 10:29:33;;;;;;;1999.90;999.90;;;21.80;99.90;;;;;;5053160;28;20772;-80
2021/08/10 10:32:00;;;;;;;1999.90;999.90;;;22.10;99.90;;;;;;5067962;28;20383;-81
2021/08/10 10:34:27;;;;;;;1999.90;999.90;;;22.40;99.90;;;;;;5070647;28;20425;-81
2021/08/10 10:36:53;;;;;;;1999.90;999.90;;;22.70;99.90;;;;;;5072022;28;20449;-81
2021/08/10 10:39:34;;;;;;;1999.90;999.90;;;23.00;99.90;;;;;;5037793;28;21006;-81
2021/08/10 10:42:05;;;;;;;1999.90;999.90;;;23.30;99.90;;;;;;5054716;28;20438;-81
2021/08/10 10:44:40;;;;;;;1999.90;999.90;;;23.50;99.90;;;;;;5071971;28;20379;-81
2021/08/10 10:47:21;;;;;;;1999.90;999.90;;;23.50;99.90;;;;;;5071327;28;20488;-81
2021/08/10 10:49:56;;;;;;;1999.90;999.90;;;23.20;99.90;;;;;;5054927;28;20437;-81
2021/08/10 10:52:32;;;;;;;1999.90;999.90;;;23.20;99.90;;;;;;5053873;28;20403;-81
2021/08/10 10:54:59;;;;;;;1999.90;999.90;;;23.20;99.90;;;;;;5072029;28;20398;-81
2021/08/10 10:57:33;;;;;;;1999.90;999.90;;;23.20;99.90;;;;;;5071806;28;20419;-81
2021/08/10 11:00:12;;;;;;;1999.90;999.90;;;23.20;99.90;;;;;;5045711;28;20545;-81
2021/08/10 11:02:42;;;;;;;1999.90;999.90;;;23.30;99.90;;;;;;5069438;28;20411;-82
2021/08/10 11:05:08;;;;;;;1999.90;999.90;;;23.50;99.90;;;;;;5049293;28;20925;-80
2021/08/10 11:07:47;;;;;;;1999.90;999.90;;;23.60;99.90;;;;;;5048874;28;20465;-83
2021/08/10 11:10:48;;;;;;;1999.90;999.90;;;23.50;99.90;;;;;;5070632;28;20395;-82
2021/08/10 11:13:19;;;;;;;1999.90;999.90;;;23.40;99.90;;;;;;5069516;28;20407;-82
2021/08/10 11:15:45;;;;;;;1999.90;999.90;;;23.30;99.90;;;;;;5071252;28;20395;-82
2021/08/10 11:18:10;;;;;;;1999.90;999.90;;;23.20;99.90;;;;;;5071454;28;20492;-81
2021/08/10 11:20:41;;;;;;;1999.90;999.90;;;23.20;99.90;;;;;;5071332;28;20513;-81
2021/08/10 11:23:22;;;;;;;1999.90;999.90;;;23.20;99.90;;;;;;5071139;28;20165;-81
2021/08/10 11:26:01;;;;;;;1999.90;999.90;;;23.30;99.90;;;;;;5053565;28;20429;-81
2021/08/10 11:28:27;;;;;;;1999.90;999.90;;;23.40;99.90;;;;;;5071418;28;20799;-81
2021/08/10 11:30:59;;;;;;;1999.90;999.90;;;23.30;99.90;;;;;;5070644;28;20402;-82
2021/08/10 11:33:32;;;;;;;1999.90;999.90;;;23.40;99.90;;;;;;5070508;28;20391;-82
2021/08/10 11:36:12;;;;;;;1999.90;999.90;;;23.60;99.90;;;;;;5070019;28;20427;-82
2021/08/10 11:38:44;;;;;;;1999.90;999.90;;;23.90;99.90;;;;;;5068547;28;20947;-81
2021/08/10 11:41:11;;;;;;;1999.90;999.90;;;24.00;99.90;;;;;;5071173;28;20447;-81
2021/08/10 11:43:46;;;;;;;1999.90;999.90;;;24.30;99.90;;;;;;5053470;28;20422;-81
2021/08/10 11:46:23;;;;;;;1999.90;999.90;;;24.50;99.90;;;;;;5071368;28;20417;-82
2021/08/10 11:49:06;;;;;;;1999.90;999.90;;;24.70;99.90;;;;;;5071557;28;20408;-81
2021/08/10 11:51:41;;;;;;;1999.90;999.90;;;24.90;99.90;;;;;;5071467;28;20480;-82
2021/08/10 11:54:17;;;;;;;1999.90;999.90;;;25.10;99.90;;;;;;5053034;28;20414;-81
2021/08/10 11:56:48;;;;;;;1999.90;999.90;;;24.90;99.90;;;;;;5054624;28;20432;-83
2021/08/10 11:59:18;;;;;;;1999.90;999.90;;;24.70;99.90;;;;;;5071131;28;20395;-82
2021/08/10 12:01:45;;;;;;;1999.90;999.90;;;24.40;99.90;;;;;;5071769;28;20437;-82
2021/08/10 12:04:11;;;;;;;1999.90;999.90;;;24.30;99.90;;;;;;5072290;28;20410;-82
2021/08/10 12:06:36;;;;;;;1999.90;999.90;;;24.30;99.90;;;;;;5071594;28;20415;-82
2021/08/10 12:09:13;;;;;;;1999.90;999.90;;;24.40;99.90;;;;;;5071433;28;20233;-82